Time;durP1;ratioP1;P1;durP2;ratioP2;P2;SDS_P1;SDS_P2;PMS_P1;PMS_P2;Temp;Humidity;BMP_temperature;BMP_pressure;BME280_temperature;BME280_humidity;BME280_pressure;Samples;Min_cycle;Max_cycle;Signal;HPM_P1;HPM_P2
2022/08/19 00:00:10;;;;;;;4.00;2.92;;;21.70;99.90;;;;;;5066194;28;20660;-75
2022/08/19 00:02:36;;;;;;;4.68;3.20;;;21.60;99.90;;;;;;5054569;28;20024;-76
2022/08/19 00:05:03;;;;;;;4.07;3.00;;;21.60;99.90;;;;;;5058197;28;20392;-76
2022/08/19 00:07:28;;;;;;;6.00;3.78;;;21.60;99.90;;;;;;5058395;28;20044;-76
2022/08/19 00:09:54;;;;;;;6.75;3.63;;;21.50;99.90;;;;;;5063046;28;20033;-76
2022/08/19 00:12:19;;;;;;;5.97;3.67;;;21.50;99.90;;;;;;5059841;28;20066;-76
2022/08/19 00:14:45;;;;;;;5.32;3.35;;;21.60;99.90;;;;;;5059642;28;20486;-75
2022/08/19 00:17:10;;;;;;;3.80;2.88;;;21.50;99.90;;;;;;5065000;28;20036;-75
2022/08/19 00:19:37;;;;;;;3.92;3.20;;;21.60;99.90;;;;;;5062003;28;20032;-75
2022/08/19 00:22:03;;;;;;;4.95;3.38;;;21.60;99.90;;;;;;5065123;28;20725;-76
2022/08/19 00:24:29;;;;;;;4.97;3.33;;;21.60;99.90;;;;;;5063649;28;20036;-75
2022/08/19 00:26:56;;;;;;;6.22;3.78;;;21.60;99.90;;;;;;5064218;28;20549;-75
2022/08/19 00:29:23;;;;;;;4.97;3.35;;;21.60;99.90;;;;;;5066338;28;20025;-75
2022/08/19 00:31:49;;;;;;;4.25;3.00;;;21.70;99.90;;;;;;5063647;28;20029;-74
2022/08/19 00:34:15;;;;;;;4.97;3.45;;;21.70;99.90;;;;;;5063744;28;20047;-74
2022/08/19 00:36:42;;;;;;;5.43;3.53;;;21.70;99.90;;;;;;5062571;28;20494;-74
2022/08/19 00:39:08;;;;;;;4.28;3.38;;;21.70;99.90;;;;;;5060027;28;20047;-75
2022/08/19 00:41:33;;;;;;;5.20;3.35;;;21.70;99.90;;;;;;5060533;28;20059;-74
2022/08/19 00:44:06;;;;;;;5.72;4.00;;;21.70;99.90;;;;;;5057073;28;20281;-75
2022/08/19 00:46:36;;;;;;;3.97;3.17;;;21.70;99.90;;;;;;5062493;28;20032;-74
2022/08/19 00:49:06;;;;;;;4.82;2.95;;;21.70;99.90;;;;;;5061756;28;20124;-75
2022/08/19 00:51:32;;;;;;;5.63;3.15;;;21.70;99.90;;;;;;5061172;28;20025;-77
2022/08/19 00:54:00;;;;;;;5.38;3.58;;;21.60;99.90;;;;;;5061067;28;20035;-74
2022/08/19 00:56:26;;;;;;;5.00;3.22;;;21.60;99.90;;;;;;5060579;28;20094;-74
2022/08/19 00:58:55;;;;;;;5.38;3.05;;;21.60;99.90;;;;;;5063245;28;20106;-74
2022/08/19 01:01:20;;;;;;;4.28;3.13;;;21.50;99.90;;;;;;5063617;28;20455;-74
2022/08/19 01:03:46;;;;;;;4.25;3.25;;;21.50;99.90;;;;;;5062099;28;20112;-75
2022/08/19 01:06:11;;;;;;;4.72;3.28;;;21.50;99.90;;;;;;5060353;28;20507;-74
2022/08/19 01:08:37;;;;;;;4.75;3.55;;;21.50;99.90;;;;;;5060701;28;20016;-75
2022/08/19 01:11:03;;;;;;;4.82;3.25;;;21.50;99.90;;;;;;5063124;28;20032;-74
2022/08/19 01:13:32;;;;;;;6.28;3.60;;;21.40;99.90;;;;;;5064593;28;20045;-75
2022/08/19 01:16:03;;;;;;;5.22;3.47;;;21.40;99.90;;;;;;5056120;28;20040;-74
2022/08/19 01:18:29;;;;;;;4.80;3.30;;;21.40;99.90;;;;;;5060732;28;20561;-77
2022/08/19 01:20:58;;;;;;;5.40;3.05;;;21.50;99.90;;;;;;5057340;28;20025;-74
2022/08/19 01:23:42;;;;;;;4.60;3.13;;;21.40;99.90;;;;;;5057583;28;20024;-75
2022/08/19 01:26:16;;;;;;;6.50;3.67;;;21.30;99.90;;;;;;5061524;28;20056;-74
2022/08/19 01:28:43;;;;;;;8.07;3.60;;;21.10;99.90;;;;;;5061884;28;20020;-75
2022/08/19 01:31:21;;;;;;;5.28;3.63;;;21.20;99.90;;;;;;5064945;28;20033;-76
2022/08/19 01:33:48;;;;;;;4.47;3.47;;;21.20;99.90;;;;;;5056670;28;20032;-76
2022/08/19 01:36:22;;;;;;;6.03;4.07;;;21.30;99.90;;;;;;5061562;28;20031;-74
2022/08/19 01:38:48;;;;;;;7.60;4.13;;;21.30;99.90;;;;;;5059542;28;20024;-75
2022/08/19 01:41:13;;;;;;;5.28;3.15;;;21.30;99.90;;;;;;5063351;28;20716;-75
2022/08/19 01:43:39;;;;;;;6.72;4.43;;;21.30;99.90;;;;;;5060951;28;20044;-75
2022/08/19 01:46:05;;;;;;;5.35;3.45;;;21.30;99.90;;;;;;5062383;28;20461;-74
2022/08/19 01:48:38;;;;;;;5.25;3.38;;;21.30;99.90;;;;;;5063193;28;20031;-74
2022/08/19 01:51:04;;;;;;;5.30;3.50;;;21.30;99.90;;;;;;5052199;28;20029;-75
2022/08/19 01:53:30;;;;;;;4.53;3.15;;;21.30;99.90;;;;;;5056644;28;20051;-74
2022/08/19 01:55:55;;;;;;;4.93;3.67;;;21.20;99.90;;;;;;5058607;28;20117;-74
2022/08/19 01:58:24;;;;;;;6.15;3.95;;;21.10;99.90;;;;;;5057339;28;20031;-74
2022/08/19 02:00:49;;;;;;;5.15;3.72;;;21.20;99.90;;;;;;5057405;28;20040;-75
2022/08/19 02:03:15;;;;;;;4.70;3.40;;;21.20;99.90;;;;;;5059688;28;20024;-74
2022/08/19 02:05:43;;;;;;;5.35;3.88;;;21.20;99.90;;;;;;5060713;28;20476;-75
2022/08/19 02:08:10;;;;;;;7.60;3.65;;;21.20;99.90;;;;;;5061071;28;20044;-74
2022/08/19 02:10:40;;;;;;;6.30;3.92;;;21.20;99.90;;;;;;5060780;28;20518;-74
2022/08/19 02:13:05;;;;;;;4.43;3.40;;;21.30;99.90;;;;;;5063079;28;20056;-75
2022/08/19 02:15:31;;;;;;;4.20;3.60;;;21.30;99.90;;;;;;5063908;28;20109;-75
2022/08/19 02:17:58;;;;;;;6.38;3.97;;;21.10;99.90;;;;;;5060993;28;20119;-75
2022/08/19 02:20:23;;;;;;;5.78;3.17;;;21.00;99.90;;;;;;5045750;28;20028;-75
2022/08/19 02:22:49;;;;;;;5.78;3.40;;;20.90;99.90;;;;;;5059128;28;20028;-75
2022/08/19 02:25:15;;;;;;;5.18;3.25;;;20.80;99.90;;;;;;5057995;28;20020;-76
2022/08/19 02:27:41;;;;;;;5.07;3.25;;;20.70;99.90;;;;;;5059099;28;20028;-76
2022/08/19 02:30:11;;;;;;;5.35;3.33;;;20.70;99.90;;;;;;5060045;28;20554;-75
2022/08/19 02:32:36;;;;;;;4.00;2.80;;;20.50;99.90;;;;;;5055967;28;20028;-75
2022/08/19 02:35:03;;;;;;;5.30;3.25;;;20.40;99.90;;;;;;5057618;28;20021;-75
2022/08/19 02:40:13;;;;;;;4.03;3.33;;;20.40;99.90;;;;;;5062239;28;20118;-74
2022/08/19 02:42:40;;;;;;;5.80;3.35;;;20.30;99.90;;;;;;5059701;28;20067;-75
2022/08/19 02:45:07;;;;;;;5.32;3.97;;;20.30;99.90;;;;;;5060988;28;20027;-74
2022/08/19 02:47:33;;;;;;;5.35;3.60;;;20.40;99.90;;;;;;5057750;28;20037;-76
2022/08/19 02:50:01;;;;;;;4.72;3.35;;;20.40;99.90;;;;;;5062877;28;20505;-75
2022/08/19 02:52:27;;;;;;;3.90;3.30;;;20.40;99.90;;;;;;5060038;28;20115;-76
2022/08/19 02:54:53;;;;;;;4.10;3.00;;;20.40;99.90;;;;;;5059655;28;20035;-76
2022/08/19 02:57:18;;;;;;;5.03;3.35;;;20.40;99.90;;;;;;5060418;28;20546;-76
2022/08/19 02:59:44;;;;;;;3.88;2.90;;;20.40;99.90;;;;;;5056651;28;20072;-76
2022/08/19 03:02:09;;;;;;;6.15;3.00;;;20.40;99.90;;;;;;5060649;28;20078;-75
2022/08/19 03:04:35;;;;;;;4.20;3.35;;;20.40;99.90;;;;;;5056633;28;20038;-75
2022/08/19 03:07:00;;;;;;;5.20;3.58;;;20.40;99.90;;;;;;5059158;28;20125;-75
2022/08/19 03:09:26;;;;;;;5.82;3.40;;;20.50;99.90;;;;;;5062181;28;20036;-75
2022/08/19 03:11:51;;;;;;;4.90;3.63;;;20.50;99.90;;;;;;5066936;28;20032;-76
2022/08/19 03:14:17;;;;;;;5.53;3.97;;;20.50;99.90;;;;;;5065156;28;20016;-75
2022/08/19 03:16:50;;;;;;;5.85;3.40;;;20.50;99.90;;;;;;5062341;28;20017;-76
2022/08/19 03:19:18;;;;;;;3.95;2.92;;;20.50;99.90;;;;;;5064475;28;20410;-76
2022/08/19 03:21:44;;;;;;;5.60;3.55;;;20.50;99.90;;;;;;5044679;28;20029;-77
2022/08/19 03:24:10;;;;;;;5.45;3.92;;;20.60;99.90;;;;;;5064882;28;20111;-76
2022/08/19 03:26:45;;;;;;;5.00;3.47;;;20.60;99.90;;;;;;5063227;28;20581;-77
2022/08/19 03:29:11;;;;;;;7.07;3.85;;;20.60;99.90;;;;;;5063259;28;20029;-76
2022/08/19 03:31:38;;;;;;;5.63;3.30;;;20.60;99.90;;;;;;5062466;28;20046;-76
2022/08/19 03:34:04;;;;;;;4.63;3.38;;;20.50;99.90;;;;;;5059585;28;20056;-76
2022/08/19 03:36:29;;;;;;;8.18;3.80;;;20.50;99.90;;;;;;5064482;28;20028;-76
2022/08/19 03:38:59;;;;;;;5.00;3.22;;;20.50;99.90;;;;;;5059128;28;20662;-76
2022/08/19 03:41:28;;;;;;;4.93;3.50;;;20.40;99.90;;;;;;5057150;28;20127;-76
2022/08/19 03:43:54;;;;;;;7.30;4.10;;;20.30;99.90;;;;;;5059059;28;20024;-76
2022/08/19 03:46:24;;;;;;;7.55;3.83;;;20.30;99.90;;;;;;5060989;28;20052;-76
2022/08/19 03:48:53;;;;;;;6.35;4.07;;;20.30;99.90;;;;;;5062888;28;20032;-76
2022/08/19 03:51:30;;;;;;;7.57;3.67;;;20.30;99.90;;;;;;5061141;28;20467;-76
2022/08/19 03:53:58;;;;;;;4.82;3.47;;;20.30;99.90;;;;;;5065156;28;20502;-76
2022/08/19 03:56:27;;;;;;;6.03;2.95;;;20.30;99.90;;;;;;5065966;28;20032;-76
2022/08/19 03:58:54;;;;;;;6.53;3.85;;;20.40;99.90;;;;;;5063782;28;20039;-75
2022/08/19 04:01:22;;;;;;;3.75;3.17;;;20.40;99.90;;;;;;5063742;28;20064;-75
2022/08/19 04:03:48;;;;;;;4.95;3.30;;;20.40;99.90;;;;;;5062400;28;20027;-76
2022/08/19 04:06:21;;;;;;;4.15;2.72;;;20.30;99.90;;;;;;5061654;28;20099;-76
2022/08/19 04:08:50;;;;;;;7.63;3.47;;;20.30;99.90;;;;;;5063541;28;20036;-76
2022/08/19 04:11:21;;;;;;;5.90;3.67;;;20.40;99.90;;;;;;5060880;28;20045;-75
2022/08/19 04:13:46;;;;;;;4.32;3.20;;;20.30;99.90;;;;;;5059867;28;20032;-75
2022/08/19 04:16:12;;;;;;;6.53;3.72;;;20.40;99.90;;;;;;5059828;28;20094;-77
2022/08/19 04:18:39;;;;;;;7.95;4.05;;;20.40;99.90;;;;;;5060328;28;20031;-76
2022/08/19 04:21:07;;;;;;;5.75;3.88;;;20.40;99.90;;;;;;5062312;28;20040;-76
2022/08/19 04:23:33;;;;;;;5.53;3.90;;;20.40;99.90;;;;;;5062221;28;20111;-76
2022/08/19 04:25:59;;;;;;;4.63;3.40;;;20.40;99.90;;;;;;5063982;28;20016;-76
2022/08/19 04:28:25;;;;;;;5.15;3.33;;;20.50;99.90;;;;;;5064065;28;20036;-75
2022/08/19 04:30:53;;;;;;;4.57;3.30;;;20.50;99.90;;;;;;5064907;28;20815;-76
2022/08/19 04:33:23;;;;;;;4.55;3.55;;;20.50;99.90;;;;;;5061240;28;20650;-76
2022/08/19 04:35:50;;;;;;;8.32;3.85;;;20.60;99.90;;;;;;5062535;28;20036;-76
2022/08/19 04:38:18;;;;;;;4.60;3.03;;;20.60;99.90;;;;;;5063878;28;21010;-76
2022/08/19 04:43:34;;;;;;;5.93;4.15;;;20.50;99.90;;;;;;5063746;28;20035;-76
2022/08/19 04:46:08;;;;;;;7.22;3.97;;;20.50;99.90;;;;;;5060111;28;20475;-76
2022/08/19 04:48:35;;;;;;;5.30;3.78;;;20.50;99.90;;;;;;5044738;28;20029;-76
2022/08/19 04:51:06;;;;;;;5.13;3.40;;;20.50;99.90;;;;;;5059407;28;20033;-76
2022/08/19 04:53:33;;;;;;;6.10;4.00;;;20.50;99.90;;;;;;5056790;28;20067;-76
2022/08/19 04:56:06;;;;;;;5.07;3.47;;;20.50;99.90;;;;;;5058276;28;20036;-75
2022/08/19 04:58:32;;;;;;;7.78;3.78;;;20.60;99.90;;;;;;5057282;28;20466;-76
2022/08/19 05:00:59;;;;;;;6.68;3.72;;;20.50;99.90;;;;;;5062357;28;20082;-76
2022/08/19 05:03:25;;;;;;;5.68;3.72;;;20.60;99.90;;;;;;5062169;28;20115;-77
2022/08/19 05:05:51;;;;;;;6.72;4.10;;;20.60;99.90;;;;;;5058794;28;20067;-77
2022/08/19 05:08:21;;;;;;;4.82;3.47;;;20.60;99.90;;;;;;5064096;28;20052;-76
2022/08/19 05:10:50;;;;;;;4.25;3.50;;;20.60;99.90;;;;;;5058646;28;20085;-77
2022/08/19 05:13:18;;;;;;;7.38;4.10;;;20.60;99.90;;;;;;5065417;28;20101;-76
2022/08/19 05:15:52;;;;;;;4.20;3.10;;;20.70;99.90;;;;;;5058278;28;20096;-76
2022/08/19 05:23:52;;;;;;;5.95;3.47;;;20.70;99.90;;;;;;5056897;28;20040;-75
2022/08/19 05:26:17;;;;;;;6.43;3.45;;;20.80;99.90;;;;;;5059436;28;20979;-76
2022/08/19 05:28:43;;;;;;;5.75;4.25;;;20.80;99.90;;;;;;5058962;28;20471;-76
2022/08/19 05:31:08;;;;;;;4.47;3.50;;;20.90;99.90;;;;;;5060395;28;20035;-77
2022/08/19 05:33:33;;;;;;;6.82;3.25;;;21.00;99.90;;;;;;5058247;28;20041;-77
2022/08/19 05:36:01;;;;;;;6.97;3.58;;;21.10;99.90;;;;;;5062676;28;20039;-77
2022/08/19 05:38:27;;;;;;;5.07;3.72;;;21.20;99.90;;;;;;5063727;28;20106;-76
2022/08/19 05:40:52;;;;;;;5.03;3.50;;;21.20;99.90;;;;;;5061604;28;20236;-77
2022/08/19 05:43:18;;;;;;;5.53;3.97;;;21.30;99.90;;;;;;5063273;28;20250;-76
2022/08/19 05:45:44;;;;;;;3.78;3.35;;;21.40;99.90;;;;;;5056804;28;20465;-76
2022/08/19 05:48:13;;;;;;;4.80;3.47;;;21.60;99.90;;;;;;5062649;28;20123;-76
2022/08/19 05:50:40;;;;;;;7.18;4.53;;;21.60;99.90;;;;;;5060687;28;20134;-76
2022/08/19 05:53:06;;;;;;;6.45;3.60;;;21.80;99.90;;;;;;5064989;28;20039;-77
2022/08/19 05:55:32;;;;;;;6.22;4.35;;;21.80;99.90;;;;;;5059929;28;20040;-76
2022/08/19 05:57:58;;;;;;;5.38;3.65;;;21.90;99.90;;;;;;5059334;28;20472;-76
2022/08/19 06:00:24;;;;;;;4.55;3.60;;;22.00;99.90;;;;;;5055863;28;20482;-76
2022/08/19 06:02:50;;;;;;;6.55;3.90;;;22.10;99.90;;;;;;5057022;28;20032;-77
2022/08/19 06:05:16;;;;;;;6.07;3.83;;;22.10;99.90;;;;;;5059698;28;20025;-76
2022/08/19 06:07:41;;;;;;;7.15;3.75;;;22.10;99.90;;;;;;5060240;28;20024;-77
2022/08/19 06:10:09;;;;;;;5.63;3.85;;;22.20;99.90;;;;;;5062043;28;20027;-77
2022/08/19 06:12:35;;;;;;;6.53;4.07;;;22.30;99.90;;;;;;5056152;28;20438;-75
2022/08/19 06:15:05;;;;;;;8.05;4.28;;;22.50;99.90;;;;;;5064594;28;20085;-76
2022/08/19 06:17:31;;;;;;;6.85;4.18;;;22.40;99.90;;;;;;5062917;28;20115;-75
2022/08/19 06:19:56;;;;;;;6.95;4.15;;;22.40;99.90;;;;;;5055489;28;20151;-76
2022/08/19 06:22:22;;;;;;;5.85;3.92;;;22.40;99.90;;;;;;5058059;28;20032;-75
2022/08/19 06:24:52;;;;;;;8.80;5.07;;;22.30;99.90;;;;;;5056142;28;20024;-76
2022/08/19 06:27:18;;;;;;;7.78;4.60;;;22.30;99.90;;;;;;5046577;28;20471;-77
2022/08/19 06:29:43;;;;;;;9.68;4.60;;;22.40;99.90;;;;;;5059326;28;20533;-83
2022/08/19 06:32:09;;;;;;;6.90;4.43;;;22.50;99.90;;;;;;5061439;28;20024;-78
2022/08/19 06:35:39;;;;;;;;;;;;;;;;;;;;;
2022/08/19 06:38:05;;;;;;;6.85;5.00;;;22.70;99.90;;;;;;4954417;28;20084;-77
2022/08/19 06:40:30;;;;;;;5.43;4.22;;;22.80;99.90;;;;;;5058934;28;20043;-77
2022/08/19 06:42:57;;;;;;;7.43;4.60;;;22.80;99.90;;;;;;5063065;28;20031;-77
2022/08/19 06:45:23;;;;;;;6.28;4.57;;;22.80;99.90;;;;;;5063491;28;20047;-77
2022/08/19 06:47:48;;;;;;;7.22;4.97;;;22.80;99.90;;;;;;5063304;28;20112;-78
2022/08/19 06:50:14;;;;;;;6.70;4.10;;;22.80;99.90;;;;;;5064503;28;20107;-77
2022/08/19 06:52:39;;;;;;;7.20;4.93;;;22.90;99.90;;;;;;5061983;28;20471;-78
2022/08/19 06:55:05;;;;;;;7.70;5.07;;;23.00;99.90;;;;;;5062205;28;20034;-78
2022/08/19 06:57:32;;;;;;;7.15;5.03;;;22.90;99.90;;;;;;5057466;28;20399;-77
2022/08/19 06:59:59;;;;;;;9.05;4.75;;;23.00;99.90;;;;;;5061861;28;20037;-78
2022/08/19 07:02:26;;;;;;;5.97;4.82;;;23.00;99.90;;;;;;5064094;28;20032;-77
2022/08/19 07:04:52;;;;;;;9.70;4.60;;;23.00;99.90;;;;;;5060512;28;20521;-78
2022/08/19 07:07:19;;;;;;;7.10;5.38;;;23.00;99.90;;;;;;5055953;28;20454;-78
2022/08/19 07:09:44;;;;;;;6.93;4.97;;;23.10;99.90;;;;;;5048412;28;20025;-78
2022/08/19 07:12:14;;;;;;;8.20;5.13;;;23.10;99.90;;;;;;5058679;28;20055;-78
2022/08/19 07:14:39;;;;;;;6.65;4.97;;;23.10;99.90;;;;;;5058994;28;20029;-78
2022/08/19 07:17:11;;;;;;;6.85;4.43;;;23.00;99.90;;;;;;5058420;28;20431;-79
2022/08/19 07:19:38;;;;;;;6.43;4.63;;;22.80;99.90;;;;;;5063487;28;20028;-79
2022/08/19 07:22:05;;;;;;;6.25;5.30;;;22.70;99.90;;;;;;5064389;28;20099;-79
2022/08/19 07:24:32;;;;;;;6.47;5.07;;;22.80;99.90;;;;;;5049905;28;20033;-78
2022/08/19 07:27:02;;;;;;;7.95;4.68;;;22.80;99.90;;;;;;5062052;28;20383;-78
2022/08/19 07:29:28;;;;;;;6.55;4.45;;;22.80;99.90;;;;;;5067056;28;20029;-79
2022/08/19 07:31:56;;;;;;;6.00;4.60;;;22.90;99.90;;;;;;5060839;28;20107;-79
2022/08/19 07:34:23;;;;;;;7.97;5.10;;;23.00;99.90;;;;;;5057588;28;20093;-79
2022/08/19 07:36:50;;;;;;;8.13;5.32;;;23.00;99.90;;;;;;5058769;28;20048;-79
2022/08/19 07:39:21;;;;;;;6.18;5.03;;;23.10;99.90;;;;;;5055412;28;20165;-78
2022/08/19 07:41:47;;;;;;;8.40;5.07;;;23.20;99.90;;;;;;5056863;28;20036;-79
2022/08/19 07:44:15;;;;;;;8.23;5.50;;;23.20;99.90;;;;;;5058199;28;20383;-80
2022/08/19 07:46:45;;;;;;;6.55;5.20;;;23.20;99.90;;;;;;5061111;28;20025;-79
2022/08/19 07:49:17;;;;;;;6.50;5.25;;;23.30;99.90;;;;;;5058276;28;20028;-77
2022/08/19 07:51:43;;;;;;;7.03;5.43;;;23.30;99.90;;;;;;5061721;28;20154;-76
2022/08/19 07:54:08;;;;;;;7.22;4.85;;;23.20;99.90;;;;;;5063468;28;20036;-75
2022/08/19 07:56:34;;;;;;;8.20;5.60;;;23.30;99.90;;;;;;5063352;28;20032;-78
2022/08/19 07:58:59;;;;;;;9.13;6.15;;;23.40;99.90;;;;;;5061929;28;20170;-78
2022/08/19 08:01:27;;;;;;;10.90;5.22;;;23.40;99.90;;;;;;5057815;28;20555;-77
2022/08/19 08:09:31;;;;;;;7.72;4.90;;;23.20;99.90;;;;;;5065443;28;20111;-79
2022/08/19 08:11:58;;;;;;;6.80;5.22;;;23.20;99.90;;;;;;5066616;28;20758;-78
2022/08/19 08:14:30;;;;;;;7.55;5.38;;;23.30;99.90;;;;;;5064673;28;20123;-78
2022/08/19 08:16:56;;;;;;;8.50;5.45;;;23.20;99.90;;;;;;5063515;28;20059;-79
2022/08/19 08:19:23;;;;;;;8.85;5.65;;;23.20;99.90;;;;;;5065330;28;20028;-79
2022/08/19 08:21:50;;;;;;;10.20;6.00;;;23.20;99.90;;;;;;5057339;28;20025;-80
2022/08/19 08:24:16;;;;;;;8.05;5.43;;;23.30;99.90;;;;;;5050094;28;20027;-81
2022/08/19 08:26:43;;;;;;;8.45;5.53;;;23.40;99.90;;;;;;5056817;28;20020;-79
2022/08/19 08:29:12;;;;;;;7.93;5.03;;;23.40;99.90;;;;;;5062234;28;20031;-83
2022/08/19 08:31:42;;;;;;;9.48;5.47;;;23.30;99.90;;;;;;5059591;28;20029;-84
2022/08/19 08:34:08;;;;;;;8.18;6.18;;;23.40;99.90;;;;;;5059411;28;20368;-82
2022/08/19 08:36:42;;;;;;;9.48;5.55;;;23.50;99.90;;;;;;5063916;28;20103;-85
2022/08/19 08:39:09;;;;;;;10.25;6.07;;;23.50;99.90;;;;;;5064274;28;20420;-84
2022/08/19 08:41:40;;;;;;;9.70;5.85;;;23.40;99.90;;;;;;5060282;28;20028;-84
2022/08/19 08:44:10;;;;;;;;;;;23.30;99.90;;;;;;5064725;28;20036;-84
2022/08/19 08:46:41;;;;;;;6.78;5.15;;;23.20;99.90;;;;;;5064454;28;19913;-83
2022/08/19 08:49:20;;;;;;;7.85;5.25;;;23.20;99.90;;;;;;5065911;28;20099;-83
2022/08/19 08:51:56;;;;;;;7.70;5.38;;;23.40;99.90;;;;;;5060234;28;20059;-83
2022/08/19 08:54:27;;;;;;;11.65;6.38;;;23.40;99.90;;;;;;5058279;28;20119;-83
2022/08/19 08:56:53;;;;;;;;;;;23.30;99.90;;;;;;5052340;28;20058;-75
2022/08/19 08:59:32;;;;;;;6.80;4.82;;;23.20;99.90;;;;;;5065979;28;19905;-79
2022/08/19 09:01:58;;;;;;;6.72;5.05;;;23.20;99.90;;;;;;5054029;28;20032;-78
2022/08/19 09:04:23;;;;;;;8.65;5.18;;;23.30;99.90;;;;;;5061391;28;20036;-79
2022/08/19 09:07:07;;;;;;;8.70;5.40;;;23.40;99.90;;;;;;5053812;28;20074;-81
2022/08/19 09:09:44;;;;;;;8.35;5.07;;;23.40;99.90;;;;;;5062356;28;20121;-78
2022/08/19 09:12:24;;;;;;;7.07;4.95;;;23.50;99.90;;;;;;5071668;28;20032;-79
2022/08/19 09:14:53;;;;;;;6.47;4.75;;;23.50;99.90;;;;;;5059401;28;20036;-80
2022/08/19 09:17:24;;;;;;;9.32;5.68;;;23.30;99.90;;;;;;5062753;28;20446;-80
2022/08/19 09:19:53;;;;;;;6.20;4.68;;;23.40;99.90;;;;;;5059930;28;20119;-79
2022/08/19 09:22:22;;;;;;;5.88;4.47;;;23.60;99.90;;;;;;5064333;28;20412;-77
2022/08/19 09:24:51;;;;;;;6.68;4.97;;;23.80;99.90;;;;;;5063714;28;20024;-85
2022/08/19 09:27:18;;;;;;;8.50;5.10;;;24.00;99.90;;;;;;5064724;28;20024;-80
2022/08/19 09:29:43;;;;;;;7.35;4.90;;;24.30;99.90;;;;;;5051516;28;20119;-80
2022/08/19 09:32:09;;;;;;;8.52;5.75;;;24.80;99.90;;;;;;5064150;28;20420;-80
2022/08/19 09:34:35;;;;;;;7.38;5.32;;;25.20;99.90;;;;;;5065624;28;20031;-80
2022/08/19 09:37:00;;;;;;;7.38;4.78;;;25.20;99.90;;;;;;5066642;28;20430;-80
2022/08/19 09:39:26;;;;;;;7.28;4.78;;;25.50;99.90;;;;;;5062830;28;20130;-87
2022/08/19 09:41:52;;;;;;;6.90;5.60;;;25.80;99.90;;;;;;5057691;28;20036;-86
2022/08/19 09:44:19;;;;;;;6.00;4.25;;;25.50;99.90;;;;;;5057821;28;20103;-86
2022/08/19 09:46:46;;;;;;;5.03;3.83;;;25.40;99.90;;;;;;5060850;28;20020;-88
2022/08/19 09:49:12;;;;;;;6.90;4.93;;;25.20;99.90;;;;;;5062159;28;20020;-80
2022/08/19 09:51:37;;;;;;;5.68;4.28;;;25.30;99.90;;;;;;5060034;28;20658;-78
2022/08/19 09:54:04;;;;;;;6.25;4.95;;;25.50;99.90;;;;;;5062742;28;20561;-78
2022/08/19 09:56:30;;;;;;;7.30;5.15;;;25.90;99.90;;;;;;5063268;28;20036;-77
2022/08/19 09:58:59;;;;;;;6.80;4.53;;;26.10;99.90;;;;;;5065926;28;20504;-78
2022/08/19 10:01:27;;;;;;;7.50;4.97;;;26.10;99.90;;;;;;5059706;28;20055;-77
2022/08/19 10:03:55;;;;;;;6.03;4.65;;;26.00;99.90;;;;;;5057151;28;20515;-77
2022/08/19 10:06:23;;;;;;;6.40;4.65;;;26.00;99.90;;;;;;5058797;28;20471;-77
2022/08/19 10:08:49;;;;;;;8.32;5.55;;;26.20;99.90;;;;;;5059518;28;20033;-77
2022/08/19 10:11:15;;;;;;;8.82;5.30;;;26.10;99.90;;;;;;5056680;28;20024;-75
2022/08/19 10:13:43;;;;;;;5.10;3.78;;;26.30;99.90;;;;;;5062429;28;20470;-76
2022/08/19 10:16:12;;;;;;;5.65;4.40;;;26.20;99.90;;;;;;5059359;28;20029;-77
2022/08/19 10:18:43;;;;;;;5.80;4.35;;;26.00;99.90;;;;;;5061409;28;20040;-76
2022/08/19 10:21:25;;;;;;;6.93;4.72;;;25.90;99.90;;;;;;5062257;28;20033;-76
2022/08/19 10:23:54;;;;;;;6.60;4.50;;;25.40;99.90;;;;;;5059060;28;20448;-77
2022/08/19 10:26:26;;;;;;;7.57;5.10;;;25.10;99.90;;;;;;5058019;28;20119;-77
2022/08/19 10:28:52;;;;;;;5.22;3.88;;;25.00;99.90;;;;;;5059493;28;20029;-78
2022/08/19 10:31:24;;;;;;;7.43;4.78;;;24.80;99.90;;;;;;5059759;28;20036;-76
2022/08/19 10:33:56;;;;;;;8.90;5.00;;;25.00;99.90;;;;;;5058134;28;20032;-76
2022/08/19 10:36:27;;;;;;;6.18;4.65;;;25.00;99.90;;;;;;5058080;28;20098;-77
2022/08/19 10:38:58;;;;;;;7.03;4.57;;;25.00;99.90;;;;;;5068457;28;20039;-77
2022/08/19 10:41:26;;;;;;;7.38;4.95;;;24.80;99.90;;;;;;5062922;28;20078;-76
2022/08/19 10:43:54;;;;;;;6.40;5.07;;;24.70;99.90;;;;;;5075786;28;20024;-77
2022/08/19 10:46:22;;;;;;;6.93;4.65;;;24.90;99.90;;;;;;5064681;28;20017;-77
2022/08/19 10:48:48;;;;;;;8.23;4.72;;;25.10;99.90;;;;;;5061341;28;20522;-76
2022/08/19 10:53:58;;;;;;;6.18;4.78;;;25.30;99.90;;;;;;5062045;28;20067;-78
2022/08/19 10:59:13;;;;;;;5.47;4.00;;;25.10;99.90;;;;;;5063512;28;20081;-77
2022/08/19 11:01:40;;;;;;;5.50;4.22;;;24.90;99.90;;;;;;5063035;28;20128;-76
2022/08/19 11:04:10;;;;;;;6.40;4.47;;;24.90;99.90;;;;;;5061149;28;20031;-77
2022/08/19 11:06:38;;;;;;;7.43;5.18;;;24.70;99.90;;;;;;5060734;28;20048;-77
2022/08/19 11:09:05;;;;;;;7.32;4.53;;;24.50;99.90;;;;;;5057873;28;20029;-77
2022/08/19 11:11:32;;;;;;;6.82;4.60;;;24.40;99.90;;;;;;5059832;28;20032;-76
2022/08/19 11:13:58;;;;;;;7.00;4.70;;;24.50;99.90;;;;;;5061288;28;20558;-77
2022/08/19 11:16:26;;;;;;;5.93;4.30;;;24.70;99.90;;;;;;5059089;28;20036;-76
2022/08/19 11:18:55;;;;;;;7.78;5.20;;;24.80;99.90;;;;;;5061268;28;20037;-77
2022/08/19 11:21:35;;;;;;;6.90;4.75;;;24.90;99.90;;;;;;5061157;28;20029;-77
2022/08/19 11:24:03;;;;;;;5.70;3.92;;;24.90;99.90;;;;;;5064491;28;20061;-77
2022/08/19 11:26:30;;;;;;;5.88;4.10;;;24.80;99.90;;;;;;5064928;28;20103;-77
2022/08/19 11:28:57;;;;;;;6.85;4.05;;;24.70;99.90;;;;;;5068249;28;20021;-78
2022/08/19 11:31:30;;;;;;;5.65;4.00;;;24.60;99.90;;;;;;5066104;28;20036;-77
2022/08/19 11:33:57;;;;;;;7.93;3.80;;;24.30;99.90;;;;;;5066526;28;20883;-77
2022/08/19 11:36:22;;;;;;;5.82;4.45;;;24.20;99.90;;;;;;5067121;28;20110;-76
2022/08/19 11:38:49;;;;;;;5.05;3.83;;;24.00;99.90;;;;;;5066429;28;20020;-76
2022/08/19 11:41:18;;;;;;;4.78;4.28;;;23.70;99.90;;;;;;5065268;28;20021;-77
2022/08/19 11:43:44;;;;;;;5.60;4.35;;;23.80;99.90;;;;;;5063294;28;20483;-77
2022/08/19 11:46:11;;;;;;;5.65;3.92;;;24.00;99.90;;;;;;5064659;28;20126;-77
2022/08/19 11:48:38;;;;;;;5.03;3.63;;;24.10;99.90;;;;;;5064456;28;20028;-78
2022/08/19 11:51:10;;;;;;;5.00;3.75;;;24.10;99.90;;;;;;5063840;28;20401;-77
2022/08/19 11:53:36;;;;;;;5.03;4.45;;;24.20;99.90;;;;;;5046514;28;21029;-76
2022/08/19 11:56:03;;;;;;;7.50;3.80;;;24.20;99.90;;;;;;5065755;28;20127;-77
2022/08/19 11:58:29;;;;;;;5.85;3.55;;;24.10;99.90;;;;;;5063792;28;20040;-77
2022/08/19 12:00:54;;;;;;;4.78;3.42;;;24.20;99.90;;;;;;5067650;28;20024;-78
2022/08/19 12:03:20;;;;;;;5.40;3.33;;;24.30;99.90;;;;;;5067328;28;20040;-77
2022/08/19 12:05:46;;;;;;;9.52;4.28;;;24.50;99.90;;;;;;5063925;28;20392;-77
2022/08/19 12:08:12;;;;;;;4.65;3.58;;;24.70;99.90;;;;;;5063512;28;20024;-77
2022/08/19 12:10:39;;;;;;;3.78;3.33;;;24.80;99.90;;;;;;5064504;28;20372;-76
2022/08/19 12:13:06;;;;;;;3.65;3.10;;;25.10;99.90;;;;;;5067319;28;20464;-78
2022/08/19 12:15:36;;;;;;;5.22;3.63;;;25.10;99.90;;;;;;5066872;28;20530;-78
2022/08/19 12:18:01;;;;;;;3.88;3.03;;;25.00;99.90;;;;;;5066717;28;20028;-77
2022/08/19 12:20:27;;;;;;;4.88;3.30;;;25.10;99.90;;;;;;5061190;28;20040;-78
2022/08/19 12:22:52;;;;;;;4.20;3.00;;;24.90;99.90;;;;;;5063417;28;20047;-78
2022/08/19 12:25:18;;;;;;;4.50;3.22;;;24.90;99.90;;;;;;5060145;28;20027;-76
2022/08/19 12:27:44;;;;;;;4.03;3.30;;;25.10;99.90;;;;;;5061276;28;20127;-77
2022/08/19 12:30:11;;;;;;;6.38;3.22;;;25.00;99.90;;;;;;5062294;28;20036;-78
2022/08/19 12:32:38;;;;;;;6.20;3.50;;;24.90;99.90;;;;;;5065024;28;20115;-78
2022/08/19 12:35:04;;;;;;;4.63;2.85;;;24.80;99.90;;;;;;5064767;28;20603;-77
2022/08/19 12:37:31;;;;;;;3.83;3.30;;;25.10;99.90;;;;;;5062939;28;20809;-77
2022/08/19 12:39:57;;;;;;;4.07;2.90;;;25.60;99.90;;;;;;5064316;28;20051;-78
2022/08/19 12:42:22;;;;;;;4.45;3.70;;;26.40;99.90;;;;;;5062627;28;20029;-77
2022/08/19 12:44:48;;;;;;;5.43;3.75;;;27.10;99.90;;;;;;5064694;28;20017;-79
2022/08/19 12:47:14;;;;;;;4.53;3.58;;;27.70;99.90;;;;;;5067048;28;20525;-79
2022/08/19 12:49:40;;;;;;;4.72;4.15;;;28.60;99.90;;;;;;5064324;28;20035;-77
2022/08/19 12:52:08;;;;;;;4.55;3.65;;;29.00;99.90;;;;;;5064219;28;20052;-78
2022/08/19 12:54:35;;;;;;;4.57;3.42;;;29.50;99.40;;;;;;5064306;28;20048;-77
2022/08/19 12:57:05;;;;;;;4.32;3.58;;;30.60;93.50;;;;;;5059146;28;20039;-79
2022/08/19 12:59:31;;;;;;;4.22;3.53;;;30.40;92.40;;;;;;5043736;28;20028;-77
2022/08/19 13:01:57;;;;;;;5.07;3.58;;;29.80;93.20;;;;;;5060596;28;20077;-77
2022/08/19 13:04:22;;;;;;;5.43;3.58;;;29.30;93.40;;;;;;5063479;28;20051;-78
2022/08/19 13:06:48;;;;;;;3.75;3.30;;;29.30;97.30;;;;;;5064592;28;20040;-78
2022/08/19 13:09:13;;;;;;;4.80;4.03;;;30.10;92.80;;;;;;5064901;28;20040;-79
2022/08/19 13:11:39;;;;;;;3.85;3.33;;;30.10;92.00;;;;;;5063992;28;20483;-78